createdAt,value
2019-05-20T00:07:22.256Z,18.61
2019-05-20T00:17:24.456Z,18.22
2019-05-20T00:27:25.443Z,18.07
2019-05-20T00:37:26.499Z,18.00
2019-05-20T00:47:27.529Z,17.91
2019-05-20T00:57:29.643Z,17.83
2019-05-20T01:07:30.689Z,17.89
2019-05-20T01:17:31.725Z,17.83
2019-05-20T01:27:32.832Z,17.73
2019-05-20T01:37:33.887Z,17.56
2019-05-20T01:47:35.098Z,17.25
2019-05-20T01:57:36.273Z,17.12
2019-05-20T02:07:37.538Z,17.17
2019-05-20T02:17:38.790Z,17.09
2019-05-20T02:27:39.787Z,16.94
2019-05-20T02:37:40.838Z,16.82
2019-05-20T02:47:41.863Z,16.67
2019-05-20T02:57:42.874Z,16.42
2019-05-20T03:07:44.040Z,16.20
2019-05-20T03:17:45.064Z,16.22
2019-05-20T03:27:46.072Z,16.16
2019-05-20T03:37:47.313Z,16.39
2019-05-20T03:47:48.742Z,16.42
2019-05-20T03:57:50.967Z,16.55
2019-05-20T04:07:52.038Z,17.01
2019-05-20T04:17:53.106Z,17.44
2019-05-20T04:27:54.409Z,17.56
2019-05-20T04:37:55.561Z,17.89
2019-05-20T04:47:56.601Z,17.97
2019-05-20T04:57:57.729Z,18.51
2019-05-20T05:07:58.884Z,19.09
2019-05-20T05:18:00.310Z,19.70
2019-05-20T05:28:01.853Z,20.78
2019-05-20T05:38:03.522Z,21.22
2019-05-20T05:48:05.053Z,21.86
2019-05-20T05:58:08.808Z,22.00
2019-05-20T06:08:09.452Z,21.27
2019-05-20T06:18:10.579Z,21.41
2019-05-20T06:28:11.603Z,22.19
2019-05-20T06:38:14.768Z,25.22
2019-05-20T06:48:15.816Z,25.24
2019-05-20T06:58:16.810Z,24.29
2019-05-20T07:08:17.868Z,29.78
2019-05-20T07:18:18.987Z,32.03
2019-05-20T07:28:20.531Z,29.86
2019-05-20T07:38:22.034Z,30.20
2019-05-20T07:48:23.513Z,31.40
2019-05-20T07:58:27.619Z,30.98
2019-05-20T08:08:28.854Z,30.01
2019-05-20T08:18:30.026Z,29.43
2019-05-20T08:28:31.284Z,29.05
2019-05-20T08:38:32.278Z,28.87
2019-05-20T08:48:33.456Z,29.04
2019-05-20T08:58:34.516Z,29.70
2019-05-20T09:08:35.537Z,29.17
2019-05-20T09:18:36.653Z,30.25
2019-05-20T09:28:37.899Z,30.40
2019-05-20T09:38:39.523Z,29.78
2019-05-20T09:48:40.635Z,29.40
2019-05-20T09:58:41.691Z,29.54
2019-05-20T10:08:45.007Z,28.81
2019-05-20T10:18:45.881Z,28.18
2019-05-20T10:28:47.680Z,28.92
2019-05-20T10:38:58.681Z,29.10
2019-05-20T10:48:52.017Z,28.85
2019-05-20T10:58:53.313Z,28.34
2019-05-20T11:08:54.538Z,28.32
2019-05-20T11:18:55.579Z,27.44
2019-05-20T11:28:56.738Z,26.76
2019-05-20T11:38:57.900Z,25.00
2019-05-20T11:48:58.917Z,24.31
2019-05-20T11:58:59.960Z,24.88
2019-05-20T12:09:00.994Z,23.55
2019-05-20T12:19:02.131Z,23.08
2019-05-20T12:29:03.360Z,22.05
2019-05-20T12:39:05.420Z,21.91
2019-05-20T12:49:06.645Z,21.62
2019-05-20T12:59:07.713Z,21.67
2019-05-20T13:09:08.823Z,21.08
2019-05-20T13:19:11.627Z,20.89
2019-05-20T13:29:12.693Z,20.59
2019-05-20T13:39:13.922Z,21.04
2019-05-20T13:49:14.991Z,22.04
2019-05-20T13:59:16.022Z,22.41
2019-05-20T14:09:17.052Z,21.71
2019-05-20T14:19:22.383Z,21.64
2019-05-20T14:29:21.241Z,21.99
2019-05-20T14:39:22.355Z,21.99
2019-05-20T14:49:35.641Z,22.18
2019-05-20T14:59:36.927Z,22.09
2019-05-20T15:09:38.330Z,22.30
2019-05-20T15:19:45.070Z,22.22
2019-05-20T15:29:46.212Z,22.23
2019-05-20T15:39:47.243Z,21.63
2019-05-20T15:49:48.577Z,20.94
2019-05-20T15:59:51.054Z,20.41
2019-05-20T16:09:52.179Z,19.64
2019-05-20T16:19:53.440Z,19.20
2019-05-20T16:30:06.073Z,18.79
2019-05-20T16:39:58.645Z,18.35
2019-05-20T16:49:59.704Z,18.21
2019-05-20T17:00:01.003Z,17.91
2019-05-20T17:10:04.927Z,17.36
2019-05-20T17:20:08.370Z,17.04
2019-05-20T17:30:11.318Z,17.15
2019-05-20T17:40:13.259Z,17.19
2019-05-20T17:50:14.883Z,17.16
2019-05-20T18:00:18.330Z,17.21
2019-05-20T18:10:21.460Z,17.21
2019-05-20T18:20:22.631Z,17.44
2019-05-20T18:30:23.889Z,17.50
2019-05-20T18:40:25.380Z,17.40
2019-05-20T18:50:26.624Z,17.11
2019-05-20T19:00:27.713Z,17.17
2019-05-20T19:10:29.235Z,17.31
2019-05-20T19:20:30.500Z,17.41
2019-05-20T19:30:31.979Z,17.14
2019-05-20T19:40:33.175Z,17.13
2019-05-20T19:50:34.560Z,16.97
2019-05-20T20:00:35.801Z,16.97
2019-05-20T20:10:37.249Z,16.94
2019-05-20T20:20:38.406Z,17.09
2019-05-20T20:30:39.614Z,17.06
2019-05-20T20:40:40.954Z,16.99
2019-05-20T20:50:42.515Z,16.70
2019-05-20T21:00:43.838Z,16.64
2019-05-20T21:10:44.925Z,16.65
2019-05-20T21:20:47.156Z,16.45
2019-05-20T21:30:48.211Z,16.41
2019-05-20T21:40:49.349Z,16.23
2019-05-20T21:50:50.644Z,16.15
2019-05-20T22:00:53.745Z,16.23
2019-05-20T22:10:54.868Z,16.41
2019-05-20T22:20:56.017Z,16.62
2019-05-20T22:30:57.060Z,16.71
2019-05-20T22:50:59.348Z,16.80
2019-05-20T23:01:00.617Z,16.79
2019-05-20T23:11:01.641Z,16.74
2019-05-20T23:21:02.782Z,16.79
2019-05-20T23:31:04.515Z,16.73
2019-05-20T23:41:05.648Z,16.73
2019-05-20T23:51:06.719Z,16.83
